sensor_id;sensor_type;location;lat;lon;timestamp;P1;durP1;ratioP1;P2;durP2;ratioP2
76073;SDS011;64776;42.636;24.358;2023-04-25T00:02:36;6.13;;;2.08;;
76073;SDS011;64776;42.636;24.358;2023-04-25T00:05:37;5.82;;;2.17;;
76073;SDS011;64776;42.636;24.358;2023-04-25T00:08:39;4.47;;;1.52;;
76073;SDS011;64776;42.636;24.358;2023-04-25T00:11:40;4.30;;;1.63;;
76073;SDS011;64776;42.636;24.358;2023-04-25T00:14:41;8.98;;;3.10;;
76073;SDS011;64776;42.636;24.358;2023-04-25T00:17:42;10.70;;;3.50;;
76073;SDS011;64776;42.636;24.358;2023-04-25T00:20:42;7.38;;;2.63;;
76073;SDS011;64776;42.636;24.358;2023-04-25T00:23:45;20.65;;;7.60;;
76073;SDS011;64776;42.636;24.358;2023-04-25T00:26:46;13.63;;;5.45;;
76073;SDS011;64776;42.636;24.358;2023-04-25T00:29:46;13.18;;;4.50;;
76073;SDS011;64776;42.636;24.358;2023-04-25T00:32:47;10.23;;;3.28;;
76073;SDS011;64776;42.636;24.358;2023-04-25T00:35:48;11.00;;;3.63;;
76073;SDS011;64776;42.636;24.358;2023-04-25T00:38:50;9.18;;;2.33;;
76073;SDS011;64776;42.636;24.358;2023-04-25T00:41:52;10.65;;;2.80;;
76073;SDS011;64776;42.636;24.358;2023-04-25T00:44:54;13.38;;;4.05;;
76073;SDS011;64776;42.636;24.358;2023-04-25T00:47:55;14.18;;;4.05;;
76073;SDS011;64776;42.636;24.358;2023-04-25T00:50:57;9.93;;;3.75;;
76073;SDS011;64776;42.636;24.358;2023-04-25T00:54:00;10.75;;;3.92;;
76073;SDS011;64776;42.636;24.358;2023-04-25T00:57:01;9.02;;;3.63;;
76073;SDS011;64776;42.636;24.358;2023-04-25T01:00:03;6.00;;;3.17;;
76073;SDS011;64776;42.636;24.358;2023-04-25T01:03:04;9.70;;;3.63;;
76073;SDS011;64776;42.636;24.358;2023-04-25T01:06:05;11.20;;;4.45;;
76073;SDS011;64776;42.636;24.358;2023-04-25T01:09:08;12.38;;;3.88;;
76073;SDS011;64776;42.636;24.358;2023-04-25T01:12:10;14.48;;;4.32;;
76073;SDS011;64776;42.636;24.358;2023-04-25T01:15:11;20.35;;;7.25;;
76073;SDS011;64776;42.636;24.358;2023-04-25T01:18:12;13.75;;;5.47;;
76073;SDS011;64776;42.636;24.358;2023-04-25T01:21:15;47.30;;;14.35;;
76073;SDS011;64776;42.636;24.358;2023-04-25T01:24:16;25.25;;;7.95;;
76073;SDS011;64776;42.636;24.358;2023-04-25T01:27:17;11.32;;;3.97;;
76073;SDS011;64776;42.636;24.358;2023-04-25T01:30:19;14.43;;;6.00;;
76073;SDS011;64776;42.636;24.358;2023-04-25T01:33:21;16.92;;;6.22;;
76073;SDS011;64776;42.636;24.358;2023-04-25T01:36:23;14.90;;;5.70;;
76073;SDS011;64776;42.636;24.358;2023-04-25T01:39:24;11.63;;;4.70;;
76073;SDS011;64776;42.636;24.358;2023-04-25T01:42:25;11.55;;;4.80;;
76073;SDS011;64776;42.636;24.358;2023-04-25T01:45:26;13.95;;;4.75;;
76073;SDS011;64776;42.636;24.358;2023-04-25T01:48:27;9.18;;;3.30;;
76073;SDS011;64776;42.636;24.358;2023-04-25T01:51:29;8.77;;;3.58;;
76073;SDS011;64776;42.636;24.358;2023-04-25T01:54:30;11.73;;;5.00;;
76073;SDS011;64776;42.636;24.358;2023-04-25T01:57:31;11.38;;;3.80;;
76073;SDS011;64776;42.636;24.358;2023-04-25T02:00:32;8.52;;;2.95;;
76073;SDS011;64776;42.636;24.358;2023-04-25T02:03:33;9.13;;;3.47;;
76073;SDS011;64776;42.636;24.358;2023-04-25T02:06:36;8.02;;;2.55;;
76073;SDS011;64776;42.636;24.358;2023-04-25T02:09:37;7.28;;;2.63;;
76073;SDS011;64776;42.636;24.358;2023-04-25T02:12:37;10.55;;;4.22;;
76073;SDS011;64776;42.636;24.358;2023-04-25T02:15:38;9.55;;;4.22;;
76073;SDS011;64776;42.636;24.358;2023-04-25T02:18:39;11.32;;;4.20;;
76073;SDS011;64776;42.636;24.358;2023-04-25T02:21:41;9.70;;;4.28;;
76073;SDS011;64776;42.636;24.358;2023-04-25T02:24:42;9.48;;;3.95;;
76073;SDS011;64776;42.636;24.358;2023-04-25T02:27:43;10.10;;;3.80;;
76073;SDS011;64776;42.636;24.358;2023-04-25T02:30:43;13.63;;;4.43;;
76073;SDS011;64776;42.636;24.358;2023-04-25T02:33:46;8.45;;;3.20;;
76073;SDS011;64776;42.636;24.358;2023-04-25T02:36:49;10.60;;;5.32;;
76073;SDS011;64776;42.636;24.358;2023-04-25T02:39:53;9.75;;;3.40;;
76073;SDS011;64776;42.636;24.358;2023-04-25T02:42:53;8.93;;;3.85;;
76073;SDS011;64776;42.636;24.358;2023-04-25T02:45:54;11.48;;;3.90;;
76073;SDS011;64776;42.636;24.358;2023-04-25T02:48:55;9.77;;;3.72;;
76073;SDS011;64776;42.636;24.358;2023-04-25T02:51:57;11.65;;;3.95;;
76073;SDS011;64776;42.636;24.358;2023-04-25T02:54:58;14.85;;;6.20;;
76073;SDS011;64776;42.636;24.358;2023-04-25T02:57:59;17.10;;;7.65;;
76073;SDS011;64776;42.636;24.358;2023-04-25T03:00:59;13.43;;;7.00;;
76073;SDS011;64776;42.636;24.358;2023-04-25T03:04:00;12.13;;;5.28;;
76073;SDS011;64776;42.636;24.358;2023-04-25T03:07:03;11.75;;;4.90;;
76073;SDS011;64776;42.636;24.358;2023-04-25T03:10:05;20.17;;;8.07;;
76073;SDS011;64776;42.636;24.358;2023-04-25T03:13:06;128.93;;;46.67;;
76073;SDS011;64776;42.636;24.358;2023-04-25T03:16:07;23.20;;;10.13;;
76073;SDS011;64776;42.636;24.358;2023-04-25T03:19:08;12.85;;;5.40;;
76073;SDS011;64776;42.636;24.358;2023-04-25T03:22:10;10.68;;;4.65;;
76073;SDS011;64776;42.636;24.358;2023-04-25T03:25:11;19.48;;;8.65;;
76073;SDS011;64776;42.636;24.358;2023-04-25T03:28:11;23.77;;;13.02;;
76073;SDS011;64776;42.636;24.358;2023-04-25T03:31:12;25.80;;;13.15;;
76073;SDS011;64776;42.636;24.358;2023-04-25T03:34:13;22.20;;;12.02;;
76073;SDS011;64776;42.636;24.358;2023-04-25T03:37:15;37.33;;;20.05;;
76073;SDS011;64776;42.636;24.358;2023-04-25T03:40:16;21.13;;;10.70;;
76073;SDS011;64776;42.636;24.358;2023-04-25T03:43:17;12.30;;;6.43;;
76073;SDS011;64776;42.636;24.358;2023-04-25T03:46:20;16.60;;;7.50;;
76073;SDS011;64776;42.636;24.358;2023-04-25T03:49:32;15.25;;;6.80;;
76073;SDS011;64776;42.636;24.358;2023-04-25T03:52:45;21.30;;;9.10;;
76073;SDS011;64776;42.636;24.358;2023-04-25T03:55:46;16.80;;;8.45;;
76073;SDS011;64776;42.636;24.358;2023-04-25T03:58:47;9.57;;;4.00;;
76073;SDS011;64776;42.636;24.358;2023-04-25T04:01:48;8.43;;;2.70;;
76073;SDS011;64776;42.636;24.358;2023-04-25T04:04:50;7.65;;;3.22;;
76073;SDS011;64776;42.636;24.358;2023-04-25T04:07:52;52.50;;;25.00;;
76073;SDS011;64776;42.636;24.358;2023-04-25T04:10:53;34.15;;;14.85;;
76073;SDS011;64776;42.636;24.358;2023-04-25T04:13:54;26.50;;;12.77;;
76073;SDS011;64776;42.636;24.358;2023-04-25T04:16:54;24.05;;;11.38;;
76073;SDS011;64776;42.636;24.358;2023-04-25T04:19:55;29.80;;;14.00;;
76073;SDS011;64776;42.636;24.358;2023-04-25T04:22:57;64.13;;;21.95;;
76073;SDS011;64776;42.636;24.358;2023-04-25T04:25:58;30.65;;;12.32;;
76073;SDS011;64776;42.636;24.358;2023-04-25T04:28:59;53.22;;;11.82;;
76073;SDS011;64776;42.636;24.358;2023-04-25T04:31:59;55.22;;;14.43;;
76073;SDS011;64776;42.636;24.358;2023-04-25T04:35:00;46.30;;;9.70;;
76073;SDS011;64776;42.636;24.358;2023-04-25T04:38:02;21.83;;;8.63;;
76073;SDS011;64776;42.636;24.358;2023-04-25T04:41:04;33.15;;;13.32;;
76073;SDS011;64776;42.636;24.358;2023-04-25T04:44:04;39.00;;;15.27;;
76073;SDS011;64776;42.636;24.358;2023-04-25T04:47:05;31.17;;;13.48;;
76073;SDS011;64776;42.636;24.358;2023-04-25T04:50:07;55.15;;;18.45;;
76073;SDS011;64776;42.636;24.358;2023-04-25T04:53:09;50.90;;;21.70;;
76073;SDS011;64776;42.636;24.358;2023-04-25T04:56:10;47.63;;;18.30;;
76073;SDS011;64776;42.636;24.358;2023-04-25T04:59:11;42.05;;;15.98;;
76073;SDS011;64776;42.636;24.358;2023-04-25T05:02:12;30.42;;;14.98;;
76073;SDS011;64776;42.636;24.358;2023-04-25T05:05:12;31.33;;;13.30;;
76073;SDS011;64776;42.636;24.358;2023-04-25T05:08:15;39.95;;;11.40;;
76073;SDS011;64776;42.636;24.358;2023-04-25T05:11:16;52.50;;;17.05;;
76073;SDS011;64776;42.636;24.358;2023-04-25T05:14:16;45.58;;;17.50;;
76073;SDS011;64776;42.636;24.358;2023-04-25T05:17:17;36.22;;;13.80;;
76073;SDS011;64776;42.636;24.358;2023-04-25T05:20:18;24.92;;;11.20;;
76073;SDS011;64776;42.636;24.358;2023-04-25T05:23:20;34.55;;;16.10;;
76073;SDS011;64776;42.636;24.358;2023-04-25T05:26:21;28.48;;;12.65;;
76073;SDS011;64776;42.636;24.358;2023-04-25T05:29:22;43.15;;;19.38;;
76073;SDS011;64776;42.636;24.358;2023-04-25T05:32:22;68.57;;;33.42;;
76073;SDS011;64776;42.636;24.358;2023-04-25T05:35:23;31.05;;;13.27;;
76073;SDS011;64776;42.636;24.358;2023-04-25T05:38:25;49.55;;;26.40;;
76073;SDS011;64776;42.636;24.358;2023-04-25T05:41:27;37.15;;;16.80;;
76073;SDS011;64776;42.636;24.358;2023-04-25T05:44:27;45.63;;;21.95;;
76073;SDS011;64776;42.636;24.358;2023-04-25T05:47:28;31.77;;;15.57;;
76073;SDS011;64776;42.636;24.358;2023-04-25T05:50:29;30.92;;;13.23;;
76073;SDS011;64776;42.636;24.358;2023-04-25T05:53:31;14.23;;;6.95;;
76073;SDS011;64776;42.636;24.358;2023-04-25T05:56:32;24.05;;;11.75;;
76073;SDS011;64776;42.636;24.358;2023-04-25T05:59:34;25.65;;;11.60;;
76073;SDS011;64776;42.636;24.358;2023-04-25T06:02:34;26.58;;;12.52;;
76073;SDS011;64776;42.636;24.358;2023-04-25T06:05:35;30.38;;;13.65;;
76073;SDS011;64776;42.636;24.358;2023-04-25T06:08:38;59.58;;;29.75;;
76073;SDS011;64776;42.636;24.358;2023-04-25T06:11:38;11.18;;;5.15;;
76073;SDS011;64776;42.636;24.358;2023-04-25T06:14:40;6.80;;;2.95;;
76073;SDS011;64776;42.636;24.358;2023-04-25T06:17:43;26.83;;;20.33;;
76073;SDS011;64776;42.636;24.358;2023-04-25T06:20:43;7.05;;;2.88;;
76073;SDS011;64776;42.636;24.358;2023-04-25T06:23:45;12.57;;;6.10;;
76073;SDS011;64776;42.636;24.358;2023-04-25T06:26:46;13.00;;;6.30;;
76073;SDS011;64776;42.636;24.358;2023-04-25T06:29:47;27.75;;;13.25;;
76073;SDS011;64776;42.636;24.358;2023-04-25T06:32:48;11.75;;;5.88;;
76073;SDS011;64776;42.636;24.358;2023-04-25T06:35:49;31.85;;;16.05;;
76073;SDS011;64776;42.636;24.358;2023-04-25T06:38:51;12.98;;;6.40;;
76073;SDS011;64776;42.636;24.358;2023-04-25T06:41:52;21.92;;;10.80;;
76073;SDS011;64776;42.636;24.358;2023-04-25T06:44:53;162.15;;;82.93;;
76073;SDS011;64776;42.636;24.358;2023-04-25T06:47:53;70.15;;;30.35;;
76073;SDS011;64776;42.636;24.358;2023-04-25T06:50:54;141.77;;;48.92;;
76073;SDS011;64776;42.636;24.358;2023-04-25T06:53:56;256.38;;;82.40;;
76073;SDS011;64776;42.636;24.358;2023-04-25T06:56:57;310.35;;;145.85;;
76073;SDS011;64776;42.636;24.358;2023-04-25T06:59:58;43.55;;;21.40;;
76073;SDS011;64776;42.636;24.358;2023-04-25T07:02:59;12.18;;;7.00;;
76073;SDS011;64776;42.636;24.358;2023-04-25T07:06:29;31.10;;;18.42;;
76073;SDS011;64776;42.636;24.358;2023-04-25T07:09:34;16.20;;;6.82;;
76073;SDS011;64776;42.636;24.358;2023-04-25T07:12:35;11.23;;;6.45;;
76073;SDS011;64776;42.636;24.358;2023-04-25T07:15:36;8.27;;;3.15;;
76073;SDS011;64776;42.636;24.358;2023-04-25T07:18:37;9.70;;;5.10;;
76073;SDS011;64776;42.636;24.358;2023-04-25T07:21:37;9.88;;;5.03;;
76073;SDS011;64776;42.636;24.358;2023-04-25T07:24:40;10.38;;;4.47;;
76073;SDS011;64776;42.636;24.358;2023-04-25T07:27:41;10.70;;;5.65;;
76073;SDS011;64776;42.636;24.358;2023-04-25T07:30:41;4.57;;;1.77;;
76073;SDS011;64776;42.636;24.358;2023-04-25T07:33:42;4.68;;;1.92;;
76073;SDS011;64776;42.636;24.358;2023-04-25T07:36:43;4.97;;;1.58;;
76073;SDS011;64776;42.636;24.358;2023-04-25T07:39:45;4.38;;;1.65;;
76073;SDS011;64776;42.636;24.358;2023-04-25T07:42:46;5.22;;;2.10;;
76073;SDS011;64776;42.636;24.358;2023-04-25T07:45:46;3.95;;;1.35;;
76073;SDS011;64776;42.636;24.358;2023-04-25T07:48:47;4.13;;;1.50;;
76073;SDS011;64776;42.636;24.358;2023-04-25T07:51:48;7.28;;;2.42;;
76073;SDS011;64776;42.636;24.358;2023-04-25T07:54:50;56.72;;;21.33;;
76073;SDS011;64776;42.636;24.358;2023-04-25T07:57:51;4.93;;;1.67;;
76073;SDS011;64776;42.636;24.358;2023-04-25T08:00:52;4.22;;;1.50;;
76073;SDS011;64776;42.636;24.358;2023-04-25T08:03:53;5.22;;;2.08;;
76073;SDS011;64776;42.636;24.358;2023-04-25T08:06:53;10.07;;;5.78;;
76073;SDS011;64776;42.636;24.358;2023-04-25T08:09:56;10.70;;;3.38;;
76073;SDS011;64776;42.636;24.358;2023-04-25T08:12:58;6.57;;;2.20;;
76073;SDS011;64776;42.636;24.358;2023-04-25T08:15:59;6.18;;;2.22;;
76073;SDS011;64776;42.636;24.358;2023-04-25T08:19:00;12.05;;;6.22;;
76073;SDS011;64776;42.636;24.358;2023-04-25T08:22:01;12.88;;;5.70;;
76073;SDS011;64776;42.636;24.358;2023-04-25T08:25:03;13.55;;;4.97;;
76073;SDS011;64776;42.636;24.358;2023-04-25T08:28:05;11.82;;;5.15;;
76073;SDS011;64776;42.636;24.358;2023-04-25T08:31:06;9.30;;;3.00;;
76073;SDS011;64776;42.636;24.358;2023-04-25T08:34:06;5.43;;;2.25;;
76073;SDS011;64776;42.636;24.358;2023-04-25T08:37:07;6.50;;;2.80;;
76073;SDS011;64776;42.636;24.358;2023-04-25T08:40:11;18.65;;;10.02;;
76073;SDS011;64776;42.636;24.358;2023-04-25T08:43:14;7.47;;;2.30;;
76073;SDS011;64776;42.636;24.358;2023-04-25T08:46:15;6.70;;;2.33;;
76073;SDS011;64776;42.636;24.358;2023-04-25T08:49:19;8.18;;;3.17;;
76073;SDS011;64776;42.636;24.358;2023-04-25T08:52:20;5.45;;;2.30;;
76073;SDS011;64776;42.636;24.358;2023-04-25T08:55:23;3.40;;;1.45;;
76073;SDS011;64776;42.636;24.358;2023-04-25T08:58:26;6.53;;;3.22;;
76073;SDS011;64776;42.636;24.358;2023-04-25T09:01:28;7.03;;;2.28;;
76073;SDS011;64776;42.636;24.358;2023-04-25T09:04:29;11.05;;;4.85;;
76073;SDS011;64776;42.636;24.358;2023-04-25T09:07:31;10.63;;;4.22;;
76073;SDS011;64776;42.636;24.358;2023-04-25T09:10:33;8.40;;;3.00;;
76073;SDS011;64776;42.636;24.358;2023-04-25T09:13:34;9.32;;;4.10;;
76073;SDS011;64776;42.636;24.358;2023-04-25T09:16:35;4.50;;;1.88;;
76073;SDS011;64776;42.636;24.358;2023-04-25T09:19:36;7.10;;;3.20;;
76073;SDS011;64776;42.636;24.358;2023-04-25T09:22:45;26.30;;;10.88;;
76073;SDS011;64776;42.636;24.358;2023-04-25T09:25:48;8.43;;;3.38;;
76073;SDS011;64776;42.636;24.358;2023-04-25T09:28:50;11.20;;;4.80;;
76073;SDS011;64776;42.636;24.358;2023-04-25T09:32:20;6.90;;;3.15;;
76073;SDS011;64776;42.636;24.358;2023-04-25T09:35:25;5.43;;;2.53;;
76073;SDS011;64776;42.636;24.358;2023-04-25T09:38:26;9.88;;;4.43;;
76073;SDS011;64776;42.636;24.358;2023-04-25T09:41:28;9.63;;;3.33;;
76073;SDS011;64776;42.636;24.358;2023-04-25T09:44:30;6.50;;;2.13;;
76073;SDS011;64776;42.636;24.358;2023-04-25T09:47:31;19.92;;;12.13;;
76073;SDS011;64776;42.636;24.358;2023-04-25T09:50:31;7.65;;;2.88;;
76073;SDS011;64776;42.636;24.358;2023-04-25T09:53:32;6.95;;;3.17;;
76073;SDS011;64776;42.636;24.358;2023-04-25T09:56:35;19.30;;;6.80;;
76073;SDS011;64776;42.636;24.358;2023-04-25T09:59:36;10.73;;;4.53;;
76073;SDS011;64776;42.636;24.358;2023-04-25T10:02:39;15.80;;;7.28;;
76073;SDS011;64776;42.636;24.358;2023-04-25T10:05:43;10.13;;;3.92;;
76073;SDS011;64776;42.636;24.358;2023-04-25T10:08:44;5.78;;;1.70;;
76073;SDS011;64776;42.636;24.358;2023-04-25T10:11:51;8.40;;;3.08;;
76073;SDS011;64776;42.636;24.358;2023-04-25T10:14:53;4.82;;;1.92;;
76073;SDS011;64776;42.636;24.358;2023-04-25T10:17:55;2.92;;;1.02;;
76073;SDS011;64776;42.636;24.358;2023-04-25T10:20:58;6.00;;;2.40;;
76073;SDS011;64776;42.636;24.358;2023-04-25T10:24:01;10.50;;;4.68;;
76073;SDS011;64776;42.636;24.358;2023-04-25T10:27:04;6.43;;;3.10;;
76073;SDS011;64776;42.636;24.358;2023-04-25T10:30:07;3.95;;;1.88;;
76073;SDS011;64776;42.636;24.358;2023-04-25T10:33:16;4.80;;;2.03;;
76073;SDS011;64776;42.636;24.358;2023-04-25T10:36:17;3.78;;;1.52;;
76073;SDS011;64776;42.636;24.358;2023-04-25T10:39:22;6.10;;;2.75;;
76073;SDS011;64776;42.636;24.358;2023-04-25T10:42:25;6.55;;;2.80;;
76073;SDS011;64776;42.636;24.358;2023-04-25T10:45:26;6.95;;;4.30;;
76073;SDS011;64776;42.636;24.358;2023-04-25T10:48:27;5.97;;;3.08;;
76073;SDS011;64776;42.636;24.358;2023-04-25T10:51:30;3.40;;;1.58;;
76073;SDS011;64776;42.636;24.358;2023-04-25T10:54:32;8.30;;;3.58;;
76073;SDS011;64776;42.636;24.358;2023-04-25T10:57:39;7.30;;;3.75;;
76073;SDS011;64776;42.636;24.358;2023-04-25T11:00:41;17.05;;;10.90;;
76073;SDS011;64776;42.636;24.358;2023-04-25T11:03:42;10.43;;;6.15;;
76073;SDS011;64776;42.636;24.358;2023-04-25T11:06:46;4.68;;;2.63;;
76073;SDS011;64776;42.636;24.358;2023-04-25T11:09:55;5.25;;;2.42;;
76073;SDS011;64776;42.636;24.358;2023-04-25T11:12:57;12.68;;;6.55;;
76073;SDS011;64776;42.636;24.358;2023-04-25T11:15:59;6.60;;;3.65;;
76073;SDS011;64776;42.636;24.358;2023-04-25T11:19:00;11.00;;;5.93;;
76073;SDS011;64776;42.636;24.358;2023-04-25T11:22:01;14.50;;;6.40;;
76073;SDS011;64776;42.636;24.358;2023-04-25T11:25:06;16.27;;;7.88;;
76073;SDS011;64776;42.636;24.358;2023-04-25T11:28:10;22.70;;;13.07;;
76073;SDS011;64776;42.636;24.358;2023-04-25T11:31:10;6.47;;;2.25;;
76073;SDS011;64776;42.636;24.358;2023-04-25T11:34:11;4.65;;;1.92;;
76073;SDS011;64776;42.636;24.358;2023-04-25T11:37:17;17.08;;;8.88;;
76073;SDS011;64776;42.636;24.358;2023-04-25T11:40:19;5.15;;;2.17;;
76073;SDS011;64776;42.636;24.358;2023-04-25T11:43:21;7.57;;;3.05;;
76073;SDS011;64776;42.636;24.358;2023-04-25T11:46:22;5.57;;;2.30;;
76073;SDS011;64776;42.636;24.358;2023-04-25T11:49:23;20.67;;;9.48;;
76073;SDS011;64776;42.636;24.358;2023-04-25T11:52:25;4.53;;;1.67;;
76073;SDS011;64776;42.636;24.358;2023-04-25T11:55:36;5.95;;;2.25;;
76073;SDS011;64776;42.636;24.358;2023-04-25T12:02:00;5.93;;;2.13;;
76073;SDS011;64776;42.636;24.358;2023-04-25T12:05:01;4.25;;;2.00;;
76073;SDS011;64776;42.636;24.358;2023-04-25T12:08:11;4.38;;;1.70;;
76073;SDS011;64776;42.636;24.358;2023-04-25T12:11:20;4.65;;;1.42;;
76073;SDS011;64776;42.636;24.358;2023-04-25T12:14:23;4.90;;;1.80;;
76073;SDS011;64776;42.636;24.358;2023-04-25T12:17:26;4.47;;;1.80;;
76073;SDS011;64776;42.636;24.358;2023-04-25T12:20:28;2.47;;;1.02;;
76073;SDS011;64776;42.636;24.358;2023-04-25T12:23:32;2.55;;;0.93;;
76073;SDS011;64776;42.636;24.358;2023-04-25T12:26:45;3.08;;;0.98;;
76073;SDS011;64776;42.636;24.358;2023-04-25T12:29:52;3.58;;;0.85;;
76073;SDS011;64776;42.636;24.358;2023-04-25T12:32:53;5.93;;;1.40;;
76073;SDS011;64776;42.636;24.358;2023-04-25T12:35:54;1.50;;;0.82;;
76073;SDS011;64776;42.636;24.358;2023-04-25T12:38:56;2.05;;;0.65;;
76073;SDS011;64776;42.636;24.358;2023-04-25T12:41:57;4.63;;;1.35;;
76073;SDS011;64776;42.636;24.358;2023-04-25T12:44:59;5.43;;;1.80;;
76073;SDS011;64776;42.636;24.358;2023-04-25T12:48:00;3.53;;;1.00;;
76073;SDS011;64776;42.636;24.358;2023-04-25T12:51:01;7.30;;;2.13;;
76073;SDS011;64776;42.636;24.358;2023-04-25T12:54:03;3.85;;;1.33;;
76073;SDS011;64776;42.636;24.358;2023-04-25T12:57:05;3.10;;;0.98;;
76073;SDS011;64776;42.636;24.358;2023-04-25T13:00:09;4.03;;;0.85;;
76073;SDS011;64776;42.636;24.358;2023-04-25T13:03:10;10.15;;;4.30;;
76073;SDS011;64776;42.636;24.358;2023-04-25T13:06:12;5.18;;;1.27;;
76073;SDS011;64776;42.636;24.358;2023-04-25T13:09:12;10.35;;;3.97;;
76073;SDS011;64776;42.636;24.358;2023-04-25T13:12:13;7.35;;;2.08;;
76073;SDS011;64776;42.636;24.358;2023-04-25T13:15:15;3.35;;;1.00;;
76073;SDS011;64776;42.636;24.358;2023-04-25T13:18:16;1.75;;;0.50;;
76073;SDS011;64776;42.636;24.358;2023-04-25T13:21:17;2.05;;;0.60;;
76073;SDS011;64776;42.636;24.358;2023-04-25T13:24:18;3.05;;;1.10;;
76073;SDS011;64776;42.636;24.358;2023-04-25T13:27:18;10.23;;;3.00;;
76073;SDS011;64776;42.636;24.358;2023-04-25T13:30:21;1.95;;;0.55;;
76073;SDS011;64776;42.636;24.358;2023-04-25T13:33:21;2.83;;;0.98;;
76073;SDS011;64776;42.636;24.358;2023-04-25T13:36:22;1.15;;;0.43;;
76073;SDS011;64776;42.636;24.358;2023-04-25T13:39:24;4.53;;;1.75;;
76073;SDS011;64776;42.636;24.358;2023-04-25T13:42:25;1.45;;;0.55;;
76073;SDS011;64776;42.636;24.358;2023-04-25T13:45:27;3.33;;;1.05;;
76073;SDS011;64776;42.636;24.358;2023-04-25T13:48:28;2.13;;;0.82;;
76073;SDS011;64776;42.636;24.358;2023-04-25T13:51:28;4.82;;;1.33;;
76073;SDS011;64776;42.636;24.358;2023-04-25T13:54:29;2.35;;;0.73;;
76073;SDS011;64776;42.636;24.358;2023-04-25T13:57:31;1.92;;;0.63;;
76073;SDS011;64776;42.636;24.358;2023-04-25T14:00:33;4.40;;;0.70;;
76073;SDS011;64776;42.636;24.358;2023-04-25T14:03:35;2.47;;;0.43;;
76073;SDS011;64776;42.636;24.358;2023-04-25T14:06:35;6.57;;;2.38;;
76073;SDS011;64776;42.636;24.358;2023-04-25T14:09:36;3.25;;;1.00;;
76073;SDS011;64776;42.636;24.358;2023-04-25T14:12:37;5.43;;;2.08;;
76073;SDS011;64776;42.636;24.358;2023-04-25T14:15:39;1.88;;;0.70;;
76073;SDS011;64776;42.636;24.358;2023-04-25T14:18:40;7.50;;;2.40;;
76073;SDS011;64776;42.636;24.358;2023-04-25T14:21:41;3.67;;;1.13;;
76073;SDS011;64776;42.636;24.358;2023-04-25T14:24:42;7.60;;;1.08;;
76073;SDS011;64776;42.636;24.358;2023-04-25T14:27:43;3.33;;;1.00;;
76073;SDS011;64776;42.636;24.358;2023-04-25T14:30:45;5.78;;;1.88;;
76073;SDS011;64776;42.636;24.358;2023-04-25T14:33:46;2.58;;;0.73;;
76073;SDS011;64776;42.636;24.358;2023-04-25T14:36:46;5.22;;;0.98;;
76073;SDS011;64776;42.636;24.358;2023-04-25T14:39:47;6.22;;;1.63;;
76073;SDS011;64776;42.636;24.358;2023-04-25T14:42:48;3.78;;;1.05;;
76073;SDS011;64776;42.636;24.358;2023-04-25T14:45:51;13.88;;;4.82;;
76073;SDS011;64776;42.636;24.358;2023-04-25T14:48:51;2.53;;;0.93;;
76073;SDS011;64776;42.636;24.358;2023-04-25T14:51:52;6.10;;;1.55;;
76073;SDS011;64776;42.636;24.358;2023-04-25T14:54:53;3.22;;;1.13;;
76073;SDS011;64776;42.636;24.358;2023-04-25T14:57:54;7.18;;;2.13;;
76073;SDS011;64776;42.636;24.358;2023-04-25T15:00:56;9.38;;;3.13;;
76073;SDS011;64776;42.636;24.358;2023-04-25T15:03:57;34.40;;;12.85;;
76073;SDS011;64776;42.636;24.358;2023-04-25T15:06:59;14.20;;;5.35;;
76073;SDS011;64776;42.636;24.358;2023-04-25T15:10:00;32.70;;;16.35;;
76073;SDS011;64776;42.636;24.358;2023-04-25T15:13:01;17.17;;;7.70;;
76073;SDS011;64776;42.636;24.358;2023-04-25T15:16:05;7.97;;;3.72;;
76073;SDS011;64776;42.636;24.358;2023-04-25T15:19:07;5.13;;;2.25;;
76073;SDS011;64776;42.636;24.358;2023-04-25T15:22:08;5.95;;;2.85;;
76073;SDS011;64776;42.636;24.358;2023-04-25T15:25:10;10.50;;;3.67;;
76073;SDS011;64776;42.636;24.358;2023-04-25T15:28:11;4.82;;;1.52;;
76073;SDS011;64776;42.636;24.358;2023-04-25T15:31:13;11.40;;;3.28;;
76073;SDS011;64776;42.636;24.358;2023-04-25T15:34:14;5.15;;;1.17;;
76073;SDS011;64776;42.636;24.358;2023-04-25T15:37:14;15.10;;;5.82;;
76073;SDS011;64776;42.636;24.358;2023-04-25T15:40:15;10.90;;;3.72;;
76073;SDS011;64776;42.636;24.358;2023-04-25T15:43:17;9.68;;;2.50;;
76073;SDS011;64776;42.636;24.358;2023-04-25T15:46:19;17.60;;;6.40;;
76073;SDS011;64776;42.636;24.358;2023-04-25T15:49:20;16.42;;;7.45;;
76073;SDS011;64776;42.636;24.358;2023-04-25T15:52:21;18.70;;;6.32;;
76073;SDS011;64776;42.636;24.358;2023-04-25T15:55:22;6.60;;;1.65;;
76073;SDS011;64776;42.636;24.358;2023-04-25T15:58:22;7.28;;;2.90;;
76073;SDS011;64776;42.636;24.358;2023-04-25T16:01:25;6.20;;;2.55;;
76073;SDS011;64776;42.636;24.358;2023-04-25T16:04:25;10.38;;;6.20;;
76073;SDS011;64776;42.636;24.358;2023-04-25T16:07:27;16.52;;;11.40;;
76073;SDS011;64776;42.636;24.358;2023-04-25T16:10:28;12.15;;;6.65;;
76073;SDS011;64776;42.636;24.358;2023-04-25T16:13:29;10.27;;;4.65;;
76073;SDS011;64776;42.636;24.358;2023-04-25T16:16:31;18.15;;;10.40;;
76073;SDS011;64776;42.636;24.358;2023-04-25T16:19:32;7.65;;;3.30;;
76073;SDS011;64776;42.636;24.358;2023-04-25T16:22:33;13.63;;;5.30;;
76073;SDS011;64776;42.636;24.358;2023-04-25T16:25:34;9.23;;;4.15;;
76073;SDS011;64776;42.636;24.358;2023-04-25T16:28:35;12.15;;;6.32;;
76073;SDS011;64776;42.636;24.358;2023-04-25T16:31:37;9.88;;;4.80;;
76073;SDS011;64776;42.636;24.358;2023-04-25T16:34:38;14.43;;;6.28;;
76073;SDS011;64776;42.636;24.358;2023-04-25T16:37:38;8.98;;;3.92;;
76073;SDS011;64776;42.636;24.358;2023-04-25T16:40:39;12.85;;;6.80;;
76073;SDS011;64776;42.636;24.358;2023-04-25T16:43:40;9.90;;;4.40;;
76073;SDS011;64776;42.636;24.358;2023-04-25T16:46:42;11.98;;;6.05;;
76073;SDS011;64776;42.636;24.358;2023-04-25T16:49:43;14.85;;;8.75;;
76073;SDS011;64776;42.636;24.358;2023-04-25T16:52:43;188.68;;;70.18;;
76073;SDS011;64776;42.636;24.358;2023-04-25T16:55:44;51.15;;;21.10;;
76073;SDS011;64776;42.636;24.358;2023-04-25T16:58:45;27.65;;;13.00;;
76073;SDS011;64776;42.636;24.358;2023-04-25T17:01:47;26.65;;;13.57;;
76073;SDS011;64776;42.636;24.358;2023-04-25T17:04:48;48.30;;;18.38;;
76073;SDS011;64776;42.636;24.358;2023-04-25T17:07:49;74.10;;;30.90;;
76073;SDS011;64776;42.636;24.358;2023-04-25T17:10:50;60.20;;;31.38;;
76073;SDS011;64776;42.636;24.358;2023-04-25T17:13:51;49.47;;;22.35;;
76073;SDS011;64776;42.636;24.358;2023-04-25T17:16:53;41.70;;;20.88;;
76073;SDS011;64776;42.636;24.358;2023-04-25T17:20:01;50.33;;;24.70;;
76073;SDS011;64776;42.636;24.358;2023-04-25T17:23:02;90.65;;;45.85;;
76073;SDS011;64776;42.636;24.358;2023-04-25T17:26:03;39.72;;;18.75;;
76073;SDS011;64776;42.636;24.358;2023-04-25T17:29:04;24.02;;;13.20;;
76073;SDS011;64776;42.636;24.358;2023-04-25T17:32:06;53.13;;;27.65;;
76073;SDS011;64776;42.636;24.358;2023-04-25T17:35:07;38.22;;;18.73;;
76073;SDS011;64776;42.636;24.358;2023-04-25T17:38:12;19.50;;;11.38;;
76073;SDS011;64776;42.636;24.358;2023-04-25T17:41:13;27.33;;;17.55;;
76073;SDS011;64776;42.636;24.358;2023-04-25T17:44:14;23.75;;;18.63;;
76073;SDS011;64776;42.636;24.358;2023-04-25T17:47:16;23.23;;;13.70;;
76073;SDS011;64776;42.636;24.358;2023-04-25T17:50:17;20.30;;;10.70;;